SARF/FMA METAR and TAF weather

Enter ICAO airport designator
Station Type Date Time Source
SARF METAR 2019/08/22 20:00 UTC NOAA

SARF 222000Z 20007KT CAVOK 20/12 Q1022


Station Type Date Time Source
SARF Decoded METAR 2019/08/22 20:00 UTC NOAA

Station name not available
Aug 22, 2019 - 04:00 PM EDT / 2019.08.22 2000 UTC
Wind: from the SSW (200 degrees) at 8 MPH (7 KT):0
Visibility: greater than 7 mile(s):0
Temperature: 68 F (20 C)
Dew Point: 53 F (12 C)
Relative Humidity: 59%
Pressure (altimeter): 30.18 in. Hg (1022 hPa)
ob: SARF 222000Z 20007KT CAVOK 20/12 Q1022
cycle: 20

Station Type Date Time Source
SARF TAF 2019/08/22 18:28 UTC NOAA

TAF SARF 221700Z 2218/2318 16005KT 8000 NSC TX25/2318Z TN10/2310Z

Example: see airport list